sensor_id;sensor_type;location;lat;lon;timestamp;P1;durP1;ratioP1;P2;durP2;ratioP2
45208;SDS011;30951;43.994;26.260;2022-12-07T00:00:52;190.15;;;38.50;;
45208;SDS011;30951;43.994;26.260;2022-12-07T00:03:17;189.85;;;38.47;;
45208;SDS011;30951;43.994;26.260;2022-12-07T00:05:43;183.70;;;40.55;;
45208;SDS011;30951;43.994;26.260;2022-12-07T00:08:09;180.93;;;42.90;;
45208;SDS011;30951;43.994;26.260;2022-12-07T00:10:34;157.35;;;36.55;;
45208;SDS011;30951;43.994;26.260;2022-12-07T00:12:59;146.85;;;34.35;;
45208;SDS011;30951;43.994;26.260;2022-12-07T00:15:25;159.98;;;35.88;;
45208;SDS011;30951;43.994;26.260;2022-12-07T00:17:51;176.45;;;33.97;;
45208;SDS011;30951;43.994;26.260;2022-12-07T00:20:16;157.77;;;34.65;;
45208;SDS011;30951;43.994;26.260;2022-12-07T00:22:42;160.05;;;34.28;;
45208;SDS011;30951;43.994;26.260;2022-12-07T00:25:07;139.95;;;32.60;;
45208;SDS011;30951;43.994;26.260;2022-12-07T00:27:33;122.47;;;30.55;;
45208;SDS011;30951;43.994;26.260;2022-12-07T00:29:58;119.05;;;30.67;;
45208;SDS011;30951;43.994;26.260;2022-12-07T00:32:23;139.45;;;30.75;;
45208;SDS011;30951;43.994;26.260;2022-12-07T00:34:49;126.70;;;29.23;;
45208;SDS011;30951;43.994;26.260;2022-12-07T00:37:14;139.15;;;30.88;;
45208;SDS011;30951;43.994;26.260;2022-12-07T00:39:40;156.90;;;32.75;;
45208;SDS011;30951;43.994;26.260;2022-12-07T00:42:05;139.07;;;31.10;;
45208;SDS011;30951;43.994;26.260;2022-12-07T00:44:31;125.72;;;28.50;;
45208;SDS011;30951;43.994;26.260;2022-12-07T00:46:56;154.60;;;32.13;;
45208;SDS011;30951;43.994;26.260;2022-12-07T00:49:22;135.07;;;29.20;;
45208;SDS011;30951;43.994;26.260;2022-12-07T00:51:48;120.95;;;28.92;;
45208;SDS011;30951;43.994;26.260;2022-12-07T00:54:14;126.13;;;29.52;;
45208;SDS011;30951;43.994;26.260;2022-12-07T00:56:39;145.90;;;28.63;;
45208;SDS011;30951;43.994;26.260;2022-12-07T00:59:05;148.50;;;28.00;;
45208;SDS011;30951;43.994;26.260;2022-12-07T01:01:32;118.28;;;26.73;;
45208;SDS011;30951;43.994;26.260;2022-12-07T01:04:00;135.52;;;28.52;;
45208;SDS011;30951;43.994;26.260;2022-12-07T01:06:26;151.27;;;30.95;;
45208;SDS011;30951;43.994;26.260;2022-12-07T01:08:53;135.63;;;27.95;;
45208;SDS011;30951;43.994;26.260;2022-12-07T01:11:19;122.97;;;26.02;;
45208;SDS011;30951;43.994;26.260;2022-12-07T01:13:46;131.35;;;28.00;;
45208;SDS011;30951;43.994;26.260;2022-12-07T01:16:14;128.68;;;26.42;;
45208;SDS011;30951;43.994;26.260;2022-12-07T01:18:40;124.00;;;27.35;;
45208;SDS011;30951;43.994;26.260;2022-12-07T01:21:08;129.57;;;25.42;;
45208;SDS011;30951;43.994;26.260;2022-12-07T01:23:36;144.93;;;26.17;;
45208;SDS011;30951;43.994;26.260;2022-12-07T01:26:04;179.20;;;29.17;;
45208;SDS011;30951;43.994;26.260;2022-12-07T01:28:31;117.70;;;24.05;;
45208;SDS011;30951;43.994;26.260;2022-12-07T01:33:34;90.90;;;19.65;;
45208;SDS011;30951;43.994;26.260;2022-12-07T01:36:05;97.47;;;22.30;;
45208;SDS011;30951;43.994;26.260;2022-12-07T01:38:32;109.28;;;23.58;;
45208;SDS011;30951;43.994;26.260;2022-12-07T01:40:58;81.97;;;21.42;;
45208;SDS011;30951;43.994;26.260;2022-12-07T01:43:25;98.63;;;24.90;;
45208;SDS011;30951;43.994;26.260;2022-12-07T01:45:53;108.13;;;27.77;;
45208;SDS011;30951;43.994;26.260;2022-12-07T01:48:20;103.07;;;25.23;;
45208;SDS011;30951;43.994;26.260;2022-12-07T01:50:50;115.07;;;26.80;;
45208;SDS011;30951;43.994;26.260;2022-12-07T01:53:17;92.78;;;24.92;;
45208;SDS011;30951;43.994;26.260;2022-12-07T01:55:43;99.85;;;26.33;;
45208;SDS011;30951;43.994;26.260;2022-12-07T01:58:11;95.95;;;26.50;;
45208;SDS011;30951;43.994;26.260;2022-12-07T02:00:38;93.68;;;27.67;;
45208;SDS011;30951;43.994;26.260;2022-12-07T02:05:40;107.47;;;26.45;;
45208;SDS011;30951;43.994;26.260;2022-12-07T02:08:06;112.97;;;26.60;;
45208;SDS011;30951;43.994;26.260;2022-12-07T02:10:32;107.38;;;27.80;;
45208;SDS011;30951;43.994;26.260;2022-12-07T02:13:03;86.28;;;26.73;;
45208;SDS011;30951;43.994;26.260;2022-12-07T02:15:37;80.18;;;24.00;;
45208;SDS011;30951;43.994;26.260;2022-12-07T02:18:20;78.45;;;23.77;;
45208;SDS011;30951;43.994;26.260;2022-12-07T02:21:16;78.40;;;22.13;;
45208;SDS011;30951;43.994;26.260;2022-12-07T02:27:07;78.03;;;24.20;;
45208;SDS011;30951;43.994;26.260;2022-12-07T02:29:27;68.57;;;22.60;;
45208;SDS011;30951;43.994;26.260;2022-12-07T02:32:34;92.00;;;27.77;;
45208;SDS011;30951;43.994;26.260;2022-12-07T02:37:37;76.88;;;24.65;;
45208;SDS011;30951;43.994;26.260;2022-12-07T02:42:55;93.90;;;26.88;;
45208;SDS011;30951;43.994;26.260;2022-12-07T02:45:26;108.65;;;29.15;;
45208;SDS011;30951;43.994;26.260;2022-12-07T02:47:53;116.70;;;36.83;;
45208;SDS011;30951;43.994;26.260;2022-12-07T02:50:21;116.68;;;38.38;;
45208;SDS011;30951;43.994;26.260;2022-12-07T02:52:47;117.85;;;34.05;;
45208;SDS011;30951;43.994;26.260;2022-12-07T02:55:13;114.55;;;33.47;;
45208;SDS011;30951;43.994;26.260;2022-12-07T03:01:04;118.05;;;35.63;;
45208;SDS011;30951;43.994;26.260;2022-12-07T03:03:42;117.82;;;34.78;;
45208;SDS011;30951;43.994;26.260;2022-12-07T03:06:20;100.88;;;31.80;;
45208;SDS011;30951;43.994;26.260;2022-12-07T03:08:51;88.85;;;27.55;;
45208;SDS011;30951;43.994;26.260;2022-12-07T03:11:30;86.07;;;26.17;;
45208;SDS011;30951;43.994;26.260;2022-12-07T03:14:10;85.65;;;26.48;;
45208;SDS011;30951;43.994;26.260;2022-12-07T03:17:00;85.80;;;25.73;;
45208;SDS011;30951;43.994;26.260;2022-12-07T03:19:33;69.40;;;23.05;;
45208;SDS011;30951;43.994;26.260;2022-12-07T03:22:03;66.82;;;23.33;;
45208;SDS011;30951;43.994;26.260;2022-12-07T03:24:54;71.90;;;24.67;;
45208;SDS011;30951;43.994;26.260;2022-12-07T03:27:25;78.45;;;24.45;;
45208;SDS011;30951;43.994;26.260;2022-12-07T03:30:04;81.28;;;24.13;;
45208;SDS011;30951;43.994;26.260;2022-12-07T03:35:18;80.95;;;26.27;;
45208;SDS011;30951;43.994;26.260;2022-12-07T03:37:50;68.40;;;22.35;;
45208;SDS011;30951;43.994;26.260;2022-12-07T03:40:33;80.07;;;26.35;;
45208;SDS011;30951;43.994;26.260;2022-12-07T03:45:32;69.40;;;22.20;;
45208;SDS011;30951;43.994;26.260;2022-12-07T03:53:24;59.30;;;17.80;;
45208;SDS011;30951;43.994;26.260;2022-12-07T03:55:54;89.70;;;26.30;;
45208;SDS011;30951;43.994;26.260;2022-12-07T03:58:21;89.53;;;25.08;;
45208;SDS011;30951;43.994;26.260;2022-12-07T04:00:47;98.95;;;28.38;;
45208;SDS011;30951;43.994;26.260;2022-12-07T04:03:14;103.38;;;28.42;;
45208;SDS011;30951;43.994;26.260;2022-12-07T04:05:39;111.40;;;29.23;;
45208;SDS011;30951;43.994;26.260;2022-12-07T04:08:05;118.50;;;30.42;;
45208;SDS011;30951;43.994;26.260;2022-12-07T04:10:31;112.50;;;29.00;;
45208;SDS011;30951;43.994;26.260;2022-12-07T04:12:56;98.65;;;27.70;;
45208;SDS011;30951;43.994;26.260;2022-12-07T04:15:22;117.90;;;29.27;;
45208;SDS011;30951;43.994;26.260;2022-12-07T04:17:47;91.20;;;25.52;;
45208;SDS011;30951;43.994;26.260;2022-12-07T04:20:13;116.22;;;30.13;;
45208;SDS011;30951;43.994;26.260;2022-12-07T04:22:38;81.47;;;23.45;;
45208;SDS011;30951;43.994;26.260;2022-12-07T04:25:04;85.43;;;24.50;;
45208;SDS011;30951;43.994;26.260;2022-12-07T04:27:30;121.88;;;29.55;;
45208;SDS011;30951;43.994;26.260;2022-12-07T04:29:55;135.52;;;28.00;;
45208;SDS011;30951;43.994;26.260;2022-12-07T04:32:21;157.93;;;32.33;;
45208;SDS011;30951;43.994;26.260;2022-12-07T04:34:47;103.63;;;24.92;;
45208;SDS011;30951;43.994;26.260;2022-12-07T04:37:13;126.53;;;28.52;;
45208;SDS011;30951;43.994;26.260;2022-12-07T04:39:38;111.35;;;27.67;;
45208;SDS011;30951;43.994;26.260;2022-12-07T04:42:04;115.38;;;29.33;;
45208;SDS011;30951;43.994;26.260;2022-12-07T04:44:29;103.95;;;28.65;;
45208;SDS011;30951;43.994;26.260;2022-12-07T04:46:55;122.35;;;32.85;;
45208;SDS011;30951;43.994;26.260;2022-12-07T04:49:22;115.35;;;31.58;;
45208;SDS011;30951;43.994;26.260;2022-12-07T04:51:48;124.63;;;33.65;;
45208;SDS011;30951;43.994;26.260;2022-12-07T04:54:13;113.80;;;33.17;;
45208;SDS011;30951;43.994;26.260;2022-12-07T04:56:39;100.38;;;29.80;;
45208;SDS011;30951;43.994;26.260;2022-12-07T04:59:05;94.53;;;32.50;;
45208;SDS011;30951;43.994;26.260;2022-12-07T05:01:31;102.95;;;34.78;;
45208;SDS011;30951;43.994;26.260;2022-12-07T05:03:57;115.38;;;33.92;;
45208;SDS011;30951;43.994;26.260;2022-12-07T05:06:22;98.35;;;34.13;;
45208;SDS011;30951;43.994;26.260;2022-12-07T05:08:48;100.25;;;34.75;;
45208;SDS011;30951;43.994;26.260;2022-12-07T05:11:13;87.90;;;32.97;;
45208;SDS011;30951;43.994;26.260;2022-12-07T05:13:58;91.78;;;30.17;;
45208;SDS011;30951;43.994;26.260;2022-12-07T05:16:24;97.43;;;32.47;;
45208;SDS011;30951;43.994;26.260;2022-12-07T05:18:49;100.60;;;32.10;;
45208;SDS011;30951;43.994;26.260;2022-12-07T05:21:15;92.60;;;32.55;;
45208;SDS011;30951;43.994;26.260;2022-12-07T05:23:40;87.47;;;33.42;;
45208;SDS011;30951;43.994;26.260;2022-12-07T05:26:06;95.38;;;31.95;;
45208;SDS011;30951;43.994;26.260;2022-12-07T05:28:31;86.55;;;32.33;;
45208;SDS011;30951;43.994;26.260;2022-12-07T05:30:57;91.70;;;33.08;;
45208;SDS011;30951;43.994;26.260;2022-12-07T05:33:22;108.47;;;38.22;;
45208;SDS011;30951;43.994;26.260;2022-12-07T05:35:48;80.25;;;30.80;;
45208;SDS011;30951;43.994;26.260;2022-12-07T05:38:13;98.88;;;32.33;;
45208;SDS011;30951;43.994;26.260;2022-12-07T05:40:39;106.97;;;37.35;;
45208;SDS011;30951;43.994;26.260;2022-12-07T05:43:04;113.70;;;38.17;;
45208;SDS011;30951;43.994;26.260;2022-12-07T05:45:29;98.65;;;38.17;;
45208;SDS011;30951;43.994;26.260;2022-12-07T05:47:55;132.20;;;47.33;;
45208;SDS011;30951;43.994;26.260;2022-12-07T05:50:20;135.05;;;49.13;;
45208;SDS011;30951;43.994;26.260;2022-12-07T05:52:46;116.00;;;44.15;;
45208;SDS011;30951;43.994;26.260;2022-12-07T05:55:11;122.40;;;46.63;;
45208;SDS011;30951;43.994;26.260;2022-12-07T05:57:37;113.88;;;39.20;;
45208;SDS011;30951;43.994;26.260;2022-12-07T06:00:03;92.15;;;33.42;;
45208;SDS011;30951;43.994;26.260;2022-12-07T06:02:29;86.40;;;31.42;;
45208;SDS011;30951;43.994;26.260;2022-12-07T06:04:55;88.90;;;32.30;;
45208;SDS011;30951;43.994;26.260;2022-12-07T06:07:20;90.70;;;32.95;;
45208;SDS011;30951;43.994;26.260;2022-12-07T06:09:46;104.70;;;34.15;;
45208;SDS011;30951;43.994;26.260;2022-12-07T06:12:11;90.40;;;32.95;;
45208;SDS011;30951;43.994;26.260;2022-12-07T06:14:56;86.50;;;30.60;;
45208;SDS011;30951;43.994;26.260;2022-12-07T06:17:21;77.60;;;29.10;;
45208;SDS011;30951;43.994;26.260;2022-12-07T06:19:47;94.85;;;31.63;;
45208;SDS011;30951;43.994;26.260;2022-12-07T06:22:12;98.65;;;38.45;;
45208;SDS011;30951;43.994;26.260;2022-12-07T06:24:38;96.50;;;34.83;;
45208;SDS011;30951;43.994;26.260;2022-12-07T06:27:04;89.57;;;33.67;;
45208;SDS011;30951;43.994;26.260;2022-12-07T06:29:30;80.80;;;27.63;;
45208;SDS011;30951;43.994;26.260;2022-12-07T06:31:55;98.68;;;35.92;;
45208;SDS011;30951;43.994;26.260;2022-12-07T06:34:22;95.95;;;35.30;;
45208;SDS011;30951;43.994;26.260;2022-12-07T06:36:48;88.70;;;32.63;;
45208;SDS011;30951;43.994;26.260;2022-12-07T06:39:25;83.50;;;33.67;;
45208;SDS011;30951;43.994;26.260;2022-12-07T06:41:51;92.85;;;32.42;;
45208;SDS011;30951;43.994;26.260;2022-12-07T06:44:17;84.80;;;31.42;;
45208;SDS011;30951;43.994;26.260;2022-12-07T06:46:43;87.85;;;32.03;;
45208;SDS011;30951;43.994;26.260;2022-12-07T06:49:09;77.72;;;31.42;;
45208;SDS011;30951;43.994;26.260;2022-12-07T06:51:34;88.88;;;34.58;;
45208;SDS011;30951;43.994;26.260;2022-12-07T06:54:02;83.28;;;31.75;;
45208;SDS011;30951;43.994;26.260;2022-12-07T06:56:29;88.53;;;33.20;;
45208;SDS011;30951;43.994;26.260;2022-12-07T06:58:54;77.90;;;29.02;;
45208;SDS011;30951;43.994;26.260;2022-12-07T07:01:20;72.65;;;31.45;;
45208;SDS011;30951;43.994;26.260;2022-12-07T07:03:45;79.80;;;31.42;;
45208;SDS011;30951;43.994;26.260;2022-12-07T07:06:11;66.93;;;29.77;;
45208;SDS011;30951;43.994;26.260;2022-12-07T07:08:38;67.35;;;31.67;;
45208;SDS011;30951;43.994;26.260;2022-12-07T07:11:04;76.20;;;33.83;;
45208;SDS011;30951;43.994;26.260;2022-12-07T07:13:30;88.93;;;36.38;;
45208;SDS011;30951;43.994;26.260;2022-12-07T07:15:55;95.15;;;39.42;;
45208;SDS011;30951;43.994;26.260;2022-12-07T07:18:21;87.60;;;37.72;;
45208;SDS011;30951;43.994;26.260;2022-12-07T07:20:47;81.85;;;38.75;;
45208;SDS011;30951;43.994;26.260;2022-12-07T07:23:13;84.35;;;37.05;;
45208;SDS011;30951;43.994;26.260;2022-12-07T07:25:38;82.95;;;36.42;;
45208;SDS011;30951;43.994;26.260;2022-12-07T07:28:04;76.13;;;33.28;;
45208;SDS011;30951;43.994;26.260;2022-12-07T07:30:30;71.47;;;32.60;;
45208;SDS011;30951;43.994;26.260;2022-12-07T07:32:59;72.18;;;33.83;;
45208;SDS011;30951;43.994;26.260;2022-12-07T07:35:26;80.50;;;33.60;;
45208;SDS011;30951;43.994;26.260;2022-12-07T07:37:52;63.58;;;29.00;;
45208;SDS011;30951;43.994;26.260;2022-12-07T07:40:18;67.28;;;29.98;;
45208;SDS011;30951;43.994;26.260;2022-12-07T07:42:46;51.63;;;24.77;;
45208;SDS011;30951;43.994;26.260;2022-12-07T07:45:12;56.20;;;26.75;;
45208;SDS011;30951;43.994;26.260;2022-12-07T07:47:38;52.35;;;24.23;;
45208;SDS011;30951;43.994;26.260;2022-12-07T07:50:03;57.40;;;25.08;;
45208;SDS011;30951;43.994;26.260;2022-12-07T07:52:29;51.53;;;25.67;;
45208;SDS011;30951;43.994;26.260;2022-12-07T07:54:56;50.25;;;22.45;;
45208;SDS011;30951;43.994;26.260;2022-12-07T07:57:21;53.20;;;24.60;;
45208;SDS011;30951;43.994;26.260;2022-12-07T07:59:47;46.88;;;23.13;;
45208;SDS011;30951;43.994;26.260;2022-12-07T08:02:14;47.97;;;24.35;;
45208;SDS011;30951;43.994;26.260;2022-12-07T08:04:41;46.10;;;22.23;;
45208;SDS011;30951;43.994;26.260;2022-12-07T08:07:06;59.80;;;26.75;;
45208;SDS011;30951;43.994;26.260;2022-12-07T08:09:32;58.90;;;28.73;;
45208;SDS011;30951;43.994;26.260;2022-12-07T08:11:57;48.42;;;24.23;;
45208;SDS011;30951;43.994;26.260;2022-12-07T08:14:23;50.45;;;21.17;;
45208;SDS011;30951;43.994;26.260;2022-12-07T08:16:49;59.90;;;27.33;;
45208;SDS011;30951;43.994;26.260;2022-12-07T08:19:14;52.22;;;24.30;;
45208;SDS011;30951;43.994;26.260;2022-12-07T08:21:40;46.92;;;24.63;;
45208;SDS011;30951;43.994;26.260;2022-12-07T08:24:05;54.10;;;31.17;;
45208;SDS011;30951;43.994;26.260;2022-12-07T08:26:31;47.38;;;29.52;;
45208;SDS011;30951;43.994;26.260;2022-12-07T08:28:56;40.90;;;24.25;;
45208;SDS011;30951;43.994;26.260;2022-12-07T08:31:22;39.05;;;20.05;;
45208;SDS011;30951;43.994;26.260;2022-12-07T08:33:48;39.80;;;22.52;;
45208;SDS011;30951;43.994;26.260;2022-12-07T08:36:14;36.40;;;20.48;;
45208;SDS011;30951;43.994;26.260;2022-12-07T08:38:41;34.65;;;18.30;;
45208;SDS011;30951;43.994;26.260;2022-12-07T08:41:07;32.28;;;18.35;;
45208;SDS011;30951;43.994;26.260;2022-12-07T08:43:33;30.77;;;19.08;;
45208;SDS011;30951;43.994;26.260;2022-12-07T08:48:27;19.55;;;12.27;;
45208;SDS011;30951;43.994;26.260;2022-12-07T08:50:52;19.40;;;12.60;;
45208;SDS011;30951;43.994;26.260;2022-12-07T08:53:18;26.88;;;15.77;;
45208;SDS011;30951;43.994;26.260;2022-12-07T08:55:45;25.85;;;16.10;;
45208;SDS011;30951;43.994;26.260;2022-12-07T08:58:11;22.95;;;13.82;;
45208;SDS011;30951;43.994;26.260;2022-12-07T09:00:37;27.92;;;14.88;;
45208;SDS011;30951;43.994;26.260;2022-12-07T09:03:02;22.75;;;13.48;;
45208;SDS011;30951;43.994;26.260;2022-12-07T09:05:28;22.48;;;13.95;;
45208;SDS011;30951;43.994;26.260;2022-12-07T09:07:54;23.65;;;13.77;;
45208;SDS011;30951;43.994;26.260;2022-12-07T09:10:21;21.58;;;14.75;;
45208;SDS011;30951;43.994;26.260;2022-12-07T09:12:47;18.25;;;13.77;;
45208;SDS011;30951;43.994;26.260;2022-12-07T09:15:13;23.02;;;14.90;;
45208;SDS011;30951;43.994;26.260;2022-12-07T09:17:38;23.88;;;14.75;;
45208;SDS011;30951;43.994;26.260;2022-12-07T09:20:04;22.05;;;14.50;;
45208;SDS011;30951;43.994;26.260;2022-12-07T09:22:30;24.02;;;16.25;;
45208;SDS011;30951;43.994;26.260;2022-12-07T09:24:57;23.15;;;15.35;;
45208;SDS011;30951;43.994;26.260;2022-12-07T09:27:23;27.00;;;17.35;;
45208;SDS011;30951;43.994;26.260;2022-12-07T09:29:48;27.27;;;17.40;;
45208;SDS011;30951;43.994;26.260;2022-12-07T09:32:14;30.13;;;18.17;;
45208;SDS011;30951;43.994;26.260;2022-12-07T09:34:40;32.78;;;17.73;;
45208;SDS011;30951;43.994;26.260;2022-12-07T09:37:05;31.98;;;19.08;;
45208;SDS011;30951;43.994;26.260;2022-12-07T09:39:31;38.67;;;21.58;;
45208;SDS011;30951;43.994;26.260;2022-12-07T09:41:57;37.60;;;22.50;;
45208;SDS011;30951;43.994;26.260;2022-12-07T09:44:24;34.80;;;20.33;;
45208;SDS011;30951;43.994;26.260;2022-12-07T09:46:50;26.13;;;16.55;;
45208;SDS011;30951;43.994;26.260;2022-12-07T09:49:19;30.25;;;19.05;;
45208;SDS011;30951;43.994;26.260;2022-12-07T09:51:45;36.42;;;19.75;;
45208;SDS011;30951;43.994;26.260;2022-12-07T09:54:12;33.58;;;19.42;;
45208;SDS011;30951;43.994;26.260;2022-12-07T09:56:39;27.23;;;16.33;;
45208;SDS011;30951;43.994;26.260;2022-12-07T09:59:04;28.30;;;18.00;;
45208;SDS011;30951;43.994;26.260;2022-12-07T10:01:31;36.05;;;19.77;;
45208;SDS011;30951;43.994;26.260;2022-12-07T10:04:02;29.92;;;19.92;;
45208;SDS011;30951;43.994;26.260;2022-12-07T10:06:31;31.75;;;19.05;;
45208;SDS011;30951;43.994;26.260;2022-12-07T10:08:57;44.78;;;24.70;;
45208;SDS011;30951;43.994;26.260;2022-12-07T10:11:22;39.70;;;23.02;;
45208;SDS011;30951;43.994;26.260;2022-12-07T10:13:49;45.28;;;26.27;;
45208;SDS011;30951;43.994;26.260;2022-12-07T10:18:50;41.65;;;22.33;;
45208;SDS011;30951;43.994;26.260;2022-12-07T10:21:17;41.78;;;22.73;;
45208;SDS011;30951;43.994;26.260;2022-12-07T10:29:14;33.22;;;19.77;;
45208;SDS011;30951;43.994;26.260;2022-12-07T10:31:43;34.35;;;19.88;;
45208;SDS011;30951;43.994;26.260;2022-12-07T10:34:32;28.20;;;18.33;;
45208;SDS011;30951;43.994;26.260;2022-12-07T10:37:11;32.80;;;20.58;;
45208;SDS011;30951;43.994;26.260;2022-12-07T10:42:17;29.70;;;20.38;;
45208;SDS011;30951;43.994;26.260;2022-12-07T10:44:48;37.90;;;22.45;;
45208;SDS011;30951;43.994;26.260;2022-12-07T10:50:12;47.30;;;24.20;;
45208;SDS011;30951;43.994;26.260;2022-12-07T10:55:26;32.13;;;20.67;;
45208;SDS011;30951;43.994;26.260;2022-12-07T11:00:39;37.05;;;24.52;;
45208;SDS011;30951;43.994;26.260;2022-12-07T11:14:03;41.13;;;23.90;;
45208;SDS011;30951;43.994;26.260;2022-12-07T11:28:08;29.00;;;17.27;;
45208;SDS011;30951;43.994;26.260;2022-12-07T11:30:46;34.75;;;19.98;;
45208;SDS011;30951;43.994;26.260;2022-12-07T11:33:45;35.35;;;20.40;;
45208;SDS011;30951;43.994;26.260;2022-12-07T11:38:57;33.80;;;20.52;;
45208;SDS011;30951;43.994;26.260;2022-12-07T11:41:27;35.00;;;20.77;;
45208;SDS011;30951;43.994;26.260;2022-12-07T11:47:05;31.17;;;19.45;;
45208;SDS011;30951;43.994;26.260;2022-12-07T11:49:40;34.97;;;23.27;;
45208;SDS011;30951;43.994;26.260;2022-12-07T11:52:25;37.92;;;20.27;;
45208;SDS011;30951;43.994;26.260;2022-12-07T11:55:05;35.75;;;20.85;;
45208;SDS011;30951;43.994;26.260;2022-12-07T11:57:51;31.13;;;20.35;;
45208;SDS011;30951;43.994;26.260;2022-12-07T12:00:22;51.65;;;28.60;;
45208;SDS011;30951;43.994;26.260;2022-12-07T12:02:52;41.35;;;21.75;;
45208;SDS011;30951;43.994;26.260;2022-12-07T12:05:22;37.85;;;23.20;;
45208;SDS011;30951;43.994;26.260;2022-12-07T12:08:13;38.00;;;21.33;;
45208;SDS011;30951;43.994;26.260;2022-12-07T12:16:35;38.47;;;22.08;;
45208;SDS011;30951;43.994;26.260;2022-12-07T12:22:20;38.08;;;21.58;;
45208;SDS011;30951;43.994;26.260;2022-12-07T12:24:47;34.58;;;21.02;;
45208;SDS011;30951;43.994;26.260;2022-12-07T12:27:31;47.08;;;29.02;;
45208;SDS011;30951;43.994;26.260;2022-12-07T12:30:01;37.15;;;21.00;;
45208;SDS011;30951;43.994;26.260;2022-12-07T12:32:41;35.75;;;19.70;;
45208;SDS011;30951;43.994;26.260;2022-12-07T12:40:43;29.13;;;17.85;;
45208;SDS011;30951;43.994;26.260;2022-12-07T12:48:55;30.17;;;19.67;;
45208;SDS011;30951;43.994;26.260;2022-12-07T12:51:39;30.92;;;19.48;;
45208;SDS011;30951;43.994;26.260;2022-12-07T12:54:11;31.45;;;19.50;;
45208;SDS011;30951;43.994;26.260;2022-12-07T12:56:41;38.67;;;20.55;;
45208;SDS011;30951;43.994;26.260;2022-12-07T13:01:50;31.75;;;18.77;;
45208;SDS011;30951;43.994;26.260;2022-12-07T13:06:50;30.58;;;20.30;;
45208;SDS011;30951;43.994;26.260;2022-12-07T13:09:18;37.50;;;20.70;;
45208;SDS011;30951;43.994;26.260;2022-12-07T13:11:47;33.25;;;22.70;;
45208;SDS011;30951;43.994;26.260;2022-12-07T13:19:56;40.55;;;23.10;;
45208;SDS011;30951;43.994;26.260;2022-12-07T13:25:05;34.35;;;22.20;;
45208;SDS011;30951;43.994;26.260;2022-12-07T13:27:39;36.63;;;22.90;;
45208;SDS011;30951;43.994;26.260;2022-12-07T13:30:12;38.63;;;24.45;;
45208;SDS011;30951;43.994;26.260;2022-12-07T13:32:40;44.25;;;26.48;;
45208;SDS011;30951;43.994;26.260;2022-12-07T13:41:15;38.88;;;23.25;;
45208;SDS011;30951;43.994;26.260;2022-12-07T13:43:42;44.40;;;26.77;;
45208;SDS011;30951;43.994;26.260;2022-12-07T13:46:20;40.92;;;26.55;;
45208;SDS011;30951;43.994;26.260;2022-12-07T13:48:50;39.80;;;26.13;;
45208;SDS011;30951;43.994;26.260;2022-12-07T13:51:18;42.55;;;24.15;;
45208;SDS011;30951;43.994;26.260;2022-12-07T13:53:46;36.75;;;22.95;;
45208;SDS011;30951;43.994;26.260;2022-12-07T13:56:26;40.42;;;23.98;;
45208;SDS011;30951;43.994;26.260;2022-12-07T13:58:57;34.63;;;22.08;;
45208;SDS011;30951;43.994;26.260;2022-12-07T14:01:23;35.97;;;23.20;;
45208;SDS011;30951;43.994;26.260;2022-12-07T14:03:49;41.67;;;23.55;;
45208;SDS011;30951;43.994;26.260;2022-12-07T14:06:16;38.90;;;22.23;;
45208;SDS011;30951;43.994;26.260;2022-12-07T14:08:44;38.95;;;23.58;;
45208;SDS011;30951;43.994;26.260;2022-12-07T14:11:17;34.83;;;21.15;;
45208;SDS011;30951;43.994;26.260;2022-12-07T14:13:56;37.38;;;22.42;;
45208;SDS011;30951;43.994;26.260;2022-12-07T14:16:25;49.88;;;25.27;;
45208;SDS011;30951;43.994;26.260;2022-12-07T14:19:02;36.55;;;22.65;;
45208;SDS011;30951;43.994;26.260;2022-12-07T14:21:29;38.60;;;23.45;;
45208;SDS011;30951;43.994;26.260;2022-12-07T14:26:54;40.63;;;24.05;;
45208;SDS011;30951;43.994;26.260;2022-12-07T14:31:52;50.58;;;28.45;;
45208;SDS011;30951;43.994;26.260;2022-12-07T14:34:21;47.25;;;26.38;;
45208;SDS011;30951;43.994;26.260;2022-12-07T14:36:48;50.50;;;28.35;;
45208;SDS011;30951;43.994;26.260;2022-12-07T14:39:13;48.13;;;26.23;;
45208;SDS011;30951;43.994;26.260;2022-12-07T14:41:39;50.45;;;28.50;;
45208;SDS011;30951;43.994;26.260;2022-12-07T14:44:17;48.88;;;28.05;;
45208;SDS011;30951;43.994;26.260;2022-12-07T14:46:44;47.88;;;28.35;;
45208;SDS011;30951;43.994;26.260;2022-12-07T14:49:10;52.53;;;29.30;;
45208;SDS011;30951;43.994;26.260;2022-12-07T14:51:36;50.13;;;28.00;;
45208;SDS011;30951;43.994;26.260;2022-12-07T14:54:03;46.03;;;27.80;;
45208;SDS011;30951;43.994;26.260;2022-12-07T14:56:29;50.65;;;27.90;;
45208;SDS011;30951;43.994;26.260;2022-12-07T14:58:55;56.03;;;28.77;;
45208;SDS011;30951;43.994;26.260;2022-12-07T15:01:20;60.70;;;30.70;;
45208;SDS011;30951;43.994;26.260;2022-12-07T15:03:46;55.13;;;30.55;;
45208;SDS011;30951;43.994;26.260;2022-12-07T15:06:15;79.53;;;36.65;;
45208;SDS011;30951;43.994;26.260;2022-12-07T15:08:42;75.38;;;36.35;;
45208;SDS011;30951;43.994;26.260;2022-12-07T15:11:18;65.28;;;32.55;;
45208;SDS011;30951;43.994;26.260;2022-12-07T15:13:44;75.47;;;38.72;;
45208;SDS011;30951;43.994;26.260;2022-12-07T15:16:28;63.05;;;32.20;;
45208;SDS011;30951;43.994;26.260;2022-12-07T15:18:53;67.25;;;35.40;;
45208;SDS011;30951;43.994;26.260;2022-12-07T15:21:19;100.63;;;48.40;;
45208;SDS011;30951;43.994;26.260;2022-12-07T15:23:45;95.55;;;48.67;;
45208;SDS011;30951;43.994;26.260;2022-12-07T15:26:11;137.75;;;71.80;;
45208;SDS011;30951;43.994;26.260;2022-12-07T15:28:37;128.45;;;72.80;;
45208;SDS011;30951;43.994;26.260;2022-12-07T15:31:02;86.22;;;48.20;;
45208;SDS011;30951;43.994;26.260;2022-12-07T15:33:28;119.45;;;58.58;;
45208;SDS011;30951;43.994;26.260;2022-12-07T15:35:53;101.60;;;49.72;;
45208;SDS011;30951;43.994;26.260;2022-12-07T15:38:19;79.15;;;38.92;;
45208;SDS011;30951;43.994;26.260;2022-12-07T15:40:47;70.45;;;34.33;;
45208;SDS011;30951;43.994;26.260;2022-12-07T15:43:13;116.22;;;53.25;;
45208;SDS011;30951;43.994;26.260;2022-12-07T15:45:57;100.18;;;45.38;;
45208;SDS011;30951;43.994;26.260;2022-12-07T15:48:23;116.75;;;53.95;;
45208;SDS011;30951;43.994;26.260;2022-12-07T15:50:48;120.78;;;52.42;;
45208;SDS011;30951;43.994;26.260;2022-12-07T15:53:14;119.15;;;54.10;;
45208;SDS011;30951;43.994;26.260;2022-12-07T15:55:39;127.40;;;53.05;;
45208;SDS011;30951;43.994;26.260;2022-12-07T15:58:05;126.63;;;50.83;;
45208;SDS011;30951;43.994;26.260;2022-12-07T16:00:31;141.88;;;58.63;;
45208;SDS011;30951;43.994;26.260;2022-12-07T16:02:57;143.65;;;53.22;;
45208;SDS011;30951;43.994;26.260;2022-12-07T16:05:22;152.23;;;56.75;;
45208;SDS011;30951;43.994;26.260;2022-12-07T16:07:47;151.85;;;52.83;;
45208;SDS011;30951;43.994;26.260;2022-12-07T16:10:13;141.48;;;54.90;;
45208;SDS011;30951;43.994;26.260;2022-12-07T16:12:38;150.65;;;57.92;;
45208;SDS011;30951;43.994;26.260;2022-12-07T16:15:04;136.38;;;51.05;;